createdAt,value
2017-08-15T00:00:55.266Z,16.61
2017-08-15T00:03:44.649Z,16.62
2017-08-15T00:06:34.352Z,16.63
2017-08-15T00:09:24.323Z,16.66
2017-08-15T00:12:12.696Z,16.66
2017-08-15T00:17:51.394Z,16.66
2017-08-15T00:20:24.341Z,16.66
2017-08-15T00:23:02.002Z,16.66
2017-08-15T00:25:35.673Z,16.67
2017-08-15T00:28:09.576Z,16.66
2017-08-15T00:30:42.821Z,16.66
2017-08-15T00:33:16.162Z,16.65
2017-08-15T00:35:49.632Z,16.65
2017-08-15T00:38:23.081Z,16.64
2017-08-15T00:40:56.855Z,16.64
2017-08-15T00:43:31.151Z,16.64
2017-08-15T00:46:03.980Z,16.64
2017-08-15T00:48:45.555Z,16.63
2017-08-15T00:51:23.358Z,16.63
2017-08-15T00:54:01.486Z,16.61
2017-08-15T00:56:37.728Z,16.61
2017-08-15T00:59:13.565Z,16.59
2017-08-15T01:01:49.370Z,16.58
2017-08-15T01:04:25.532Z,16.57
2017-08-15T01:07:00.812Z,16.56
2017-08-15T01:09:35.508Z,16.55
2017-08-15T01:12:09.449Z,16.54
2017-08-15T01:14:45.653Z,16.53
2017-08-15T01:17:22.973Z,16.51
2017-08-15T01:19:59.096Z,16.50
2017-08-15T01:22:35.431Z,16.48
2017-08-15T01:25:10.309Z,16.49
2017-08-15T01:27:46.193Z,16.46
2017-08-15T01:30:25.430Z,16.45
2017-08-15T01:33:06.341Z,16.43
2017-08-15T01:35:42.304Z,16.43
2017-08-15T01:38:18.687Z,16.42
2017-08-15T01:40:57.200Z,16.41
2017-08-15T01:43:32.526Z,16.40
2017-08-15T01:46:09.430Z,16.40
2017-08-15T01:48:45.006Z,16.38
2017-08-15T01:51:20.083Z,16.40
2017-08-15T01:53:56.413Z,16.39
2017-08-15T01:56:29.317Z,16.38
2017-08-15T01:59:04.673Z,16.39
2017-08-15T02:01:38.079Z,16.39
2017-08-15T02:04:11.453Z,16.38
2017-08-15T02:06:44.758Z,16.39
2017-08-15T02:09:29.103Z,16.38
2017-08-15T02:12:05.494Z,16.38
2017-08-15T02:14:40.657Z,16.39
2017-08-15T02:17:15.691Z,16.39
2017-08-15T02:19:48.611Z,16.39
2017-08-15T02:22:24.079Z,16.41
2017-08-15T02:24:57.137Z,16.42
2017-08-15T02:27:30.371Z,16.43
2017-08-15T02:30:04.004Z,16.44
2017-08-15T02:32:37.028Z,16.45
2017-08-15T02:35:10.594Z,16.46
2017-08-15T02:37:43.811Z,16.46
2017-08-15T02:40:17.271Z,16.48
2017-08-15T02:42:52.083Z,16.50
2017-08-15T02:45:27.506Z,16.49
2017-08-15T02:48:02.760Z,16.50
2017-08-15T02:50:37.918Z,16.51
2017-08-15T02:53:12.661Z,16.52
2017-08-15T02:55:47.388Z,16.53
2017-08-15T02:58:24.684Z,16.53
2017-08-15T03:01:00.462Z,16.55
2017-08-15T03:03:36.288Z,16.56
2017-08-15T03:06:10.800Z,16.57
2017-08-15T03:08:45.624Z,16.58
2017-08-15T03:11:21.465Z,16.60
2017-08-15T03:13:56.746Z,16.61
2017-08-15T03:16:33.947Z,16.62
2017-08-15T03:19:09.944Z,16.63
2017-08-15T03:21:44.868Z,16.64
2017-08-15T03:24:22.019Z,16.65
2017-08-15T03:26:55.926Z,16.67
2017-08-15T03:29:31.684Z,16.68
2017-08-15T03:32:07.938Z,16.69
2017-08-15T03:34:42.250Z,16.70
2017-08-15T03:37:16.148Z,16.71
2017-08-15T03:39:51.324Z,16.73
2017-08-15T03:42:26.116Z,16.74
2017-08-15T03:44:59.895Z,16.75
2017-08-15T03:47:40.917Z,16.77
2017-08-15T03:50:15.363Z,16.78
2017-08-15T03:52:48.760Z,16.78
2017-08-15T03:55:24.211Z,16.78
2017-08-15T03:57:57.768Z,16.79
2017-08-15T04:00:32.322Z,16.80
2017-08-15T04:03:11.969Z,16.80
2017-08-15T04:05:48.563Z,16.80
2017-08-15T04:08:28.847Z,16.80
2017-08-15T04:11:03.032Z,16.81
2017-08-15T04:13:38.367Z,16.81
2017-08-15T04:16:12.883Z,16.83
2017-08-15T04:18:48.185Z,16.84
2017-08-15T04:21:21.306Z,16.84
2017-08-15T04:23:54.509Z,16.84
2017-08-15T04:26:27.993Z,16.86
2017-08-15T04:29:01.164Z,16.86
2017-08-15T04:31:34.543Z,16.86
2017-08-15T04:34:07.748Z,16.86
2017-08-15T04:36:41.210Z,16.87
2017-08-15T04:39:14.595Z,16.88
2017-08-15T04:41:49.849Z,16.88
2017-08-15T04:44:23.015Z,16.87
2017-08-15T04:46:56.165Z,16.87
2017-08-15T04:49:28.938Z,16.87
2017-08-15T04:52:02.324Z,16.88
2017-08-15T04:54:57.440Z,16.88
2017-08-15T04:57:31.306Z,16.88
2017-08-15T05:00:10.721Z,16.88
2017-08-15T05:02:43.743Z,16.87
2017-08-15T05:05:17.288Z,16.88
2017-08-15T05:07:50.724Z,16.88
2017-08-15T05:10:23.809Z,16.88
2017-08-15T05:12:57.126Z,16.89
2017-08-15T05:15:32.303Z,16.90
2017-08-15T05:18:05.554Z,16.91
2017-08-15T05:20:39.913Z,16.94
2017-08-15T05:23:13.312Z,16.95
2017-08-15T05:25:46.445Z,16.99
2017-08-15T05:28:20.105Z,17.01
2017-08-15T05:30:53.649Z,17.05
2017-08-15T05:33:29.210Z,17.08
2017-08-15T05:36:06.502Z,17.11
2017-08-15T05:38:39.282Z,17.14
2017-08-15T05:41:13.966Z,17.17
2017-08-15T05:43:47.344Z,17.19
2017-08-15T05:46:20.826Z,17.21
2017-08-15T05:48:53.633Z,17.23
2017-08-15T05:51:27.426Z,17.24
2017-08-15T05:54:01.130Z,17.26
2017-08-15T05:56:36.274Z,17.26
2017-08-15T05:59:11.684Z,17.28
2017-08-15T06:01:46.145Z,17.28
2017-08-15T06:04:22.481Z,17.30
2017-08-15T06:06:57.941Z,17.30
2017-08-15T06:09:33.988Z,17.31
2017-08-15T06:12:08.419Z,17.33
2017-08-15T06:14:42.968Z,17.34
2017-08-15T06:17:18.228Z,17.35
2017-08-15T06:19:51.183Z,17.37
2017-08-15T06:22:24.521Z,17.40
2017-08-15T06:24:57.603Z,17.42
2017-08-15T06:27:31.012Z,17.43
2017-08-15T06:30:04.640Z,17.46
2017-08-15T06:32:37.756Z,17.49
2017-08-15T06:35:11.093Z,17.51
2017-08-15T06:37:44.684Z,17.53
2017-08-15T06:40:17.837Z,17.57
2017-08-15T06:42:52.915Z,17.59
2017-08-15T06:45:25.466Z,17.62
2017-08-15T06:47:58.943Z,17.67
2017-08-15T06:50:34.264Z,17.73
2017-08-15T06:53:07.538Z,17.75
2017-08-15T06:55:40.983Z,17.79
2017-08-15T06:58:14.516Z,17.83
2017-08-15T07:00:48.670Z,17.87
2017-08-15T07:03:21.692Z,17.89
2017-08-15T07:05:55.012Z,17.90
2017-08-15T07:08:28.454Z,17.92
2017-08-15T07:11:02.146Z,17.92
2017-08-15T07:13:35.866Z,17.94
2017-08-15T07:16:10.231Z,17.96
2017-08-15T07:18:43.579Z,17.98
2017-08-15T07:21:16.887Z,17.99
2017-08-15T07:23:51.089Z,18.03
2017-08-15T07:26:25.170Z,18.06
2017-08-15T07:28:57.635Z,18.10
2017-08-15T07:31:32.411Z,18.14
2017-08-15T07:34:05.576Z,18.20
2017-08-15T07:36:38.850Z,18.24
2017-08-15T07:39:12.140Z,18.28
2017-08-15T07:41:45.696Z,18.33
2017-08-15T07:44:18.884Z,18.39
2017-08-15T07:46:53.113Z,18.46
2017-08-15T07:49:26.399Z,18.51
2017-08-15T07:51:59.875Z,18.59
2017-08-15T07:54:33.328Z,18.65
2017-08-15T07:57:06.504Z,18.74
2017-08-15T07:59:40.801Z,18.82
2017-08-15T08:02:15.242Z,18.89
2017-08-15T08:04:48.645Z,18.96
2017-08-15T08:07:22.111Z,19.03
2017-08-15T08:09:55.377Z,19.10
2017-08-15T08:12:29.436Z,19.15
2017-08-15T08:15:02.094Z,19.24
2017-08-15T08:17:37.281Z,19.33
2017-08-15T08:20:10.668Z,19.42
2017-08-15T08:22:45.300Z,19.51
2017-08-15T08:25:19.595Z,19.57
2017-08-15T08:27:52.742Z,19.67
2017-08-15T08:30:26.158Z,19.73
2017-08-15T08:33:02.924Z,19.85
2017-08-15T08:35:36.749Z,19.92
2017-08-15T08:38:11.396Z,20.02
2017-08-15T08:40:45.540Z,20.11
2017-08-15T08:43:20.326Z,20.19
2017-08-15T08:45:53.185Z,20.32
2017-08-15T08:48:26.457Z,20.39
2017-08-15T08:50:59.744Z,20.46
2017-08-15T08:53:32.860Z,20.55
2017-08-15T08:56:06.496Z,20.66
2017-08-15T08:58:39.568Z,20.75
2017-08-15T09:01:13.535Z,20.86
2017-08-15T09:03:47.510Z,20.93
2017-08-15T09:06:21.549Z,21.05
2017-08-15T09:08:55.816Z,21.16
2017-08-15T09:11:29.548Z,21.23
2017-08-15T09:14:03.729Z,21.33
2017-08-15T09:16:37.486Z,21.40
2017-08-15T09:19:11.201Z,21.54
2017-08-15T09:21:44.949Z,21.66
2017-08-15T09:24:18.024Z,21.75
2017-08-15T09:26:52.095Z,21.81
2017-08-15T09:29:24.666Z,21.93
2017-08-15T09:31:58.098Z,22.01
2017-08-15T09:34:30.982Z,22.12
2017-08-15T09:37:04.240Z,22.21
2017-08-15T09:39:37.684Z,22.37
2017-08-15T09:42:11.082Z,22.54
2017-08-15T09:44:46.361Z,22.65
2017-08-15T09:47:19.355Z,22.75
2017-08-15T09:49:52.293Z,22.88
2017-08-15T09:52:26.498Z,23.00
2017-08-15T09:54:59.956Z,23.08
2017-08-15T09:57:32.581Z,23.12
2017-08-15T10:00:05.940Z,23.21
2017-08-15T10:02:40.932Z,23.23
2017-08-15T10:05:14.668Z,23.29
2017-08-15T10:07:48.860Z,23.36
2017-08-15T10:10:22.436Z,23.46
2017-08-15T10:12:55.836Z,23.52
2017-08-15T10:15:29.786Z,23.73
2017-08-15T10:18:02.670Z,24.34
2017-08-15T10:20:36.948Z,24.00
2017-08-15T10:23:10.388Z,23.84
2017-08-15T10:25:43.821Z,23.78
2017-08-15T10:28:17.193Z,23.78
2017-08-15T10:30:50.300Z,23.80
2017-08-15T10:33:23.899Z,23.83
2017-08-15T10:35:57.754Z,23.85
2017-08-15T10:38:30.641Z,23.85
2017-08-15T10:41:04.535Z,23.90
2017-08-15T10:43:37.311Z,23.86
2017-08-15T10:46:11.562Z,23.88
2017-08-15T10:48:44.891Z,23.91
2017-08-15T10:51:19.047Z,23.93
2017-08-15T10:53:52.601Z,23.97
2017-08-15T10:56:26.066Z,24.00
2017-08-15T10:58:59.489Z,24.01
2017-08-15T11:01:33.937Z,23.98
2017-08-15T11:04:07.026Z,24.01
2017-08-15T11:06:40.506Z,24.01
2017-08-15T11:09:14.180Z,24.01
2017-08-15T11:11:48.806Z,24.07
2017-08-15T11:14:21.553Z,24.07
2017-08-15T11:16:54.824Z,24.08
2017-08-15T11:19:28.529Z,24.14
2017-08-15T11:22:02.144Z,24.16
2017-08-15T11:24:35.088Z,24.15
2017-08-15T11:27:08.146Z,24.19
2017-08-15T11:29:42.247Z,24.22
2017-08-15T11:32:15.506Z,24.24
2017-08-15T11:34:48.565Z,24.25
2017-08-15T11:37:21.855Z,24.32
2017-08-15T11:39:55.417Z,24.33
2017-08-15T11:42:28.665Z,24.32
2017-08-15T11:45:02.825Z,24.34
2017-08-15T11:47:35.459Z,24.37
2017-08-15T11:50:08.946Z,24.37
2017-08-15T11:52:42.256Z,24.38
2017-08-15T11:55:15.613Z,24.38
2017-08-15T11:57:49.033Z,24.37
2017-08-15T12:00:23.885Z,24.39
2017-08-15T12:02:57.479Z,24.42
2017-08-15T12:05:30.289Z,24.42
2017-08-15T12:08:04.295Z,24.43
2017-08-15T12:10:37.805Z,24.45
2017-08-15T12:13:11.244Z,24.48
2017-08-15T12:15:44.158Z,24.53
2017-08-15T12:18:18.372Z,24.61
2017-08-15T12:20:52.684Z,24.64
2017-08-15T12:23:26.680Z,24.74
2017-08-15T12:25:59.460Z,24.82
2017-08-15T12:28:32.823Z,24.86
2017-08-15T12:31:06.325Z,24.97
2017-08-15T12:33:40.322Z,24.99
2017-08-15T12:36:13.219Z,25.03
2017-08-15T12:38:48.044Z,25.03
2017-08-15T12:41:20.685Z,25.09
2017-08-15T12:43:54.318Z,25.12
2017-08-15T12:46:27.333Z,25.22
2017-08-15T12:49:00.810Z,25.27
2017-08-15T12:51:35.050Z,25.29
2017-08-15T12:54:08.707Z,25.36
2017-08-15T12:56:41.875Z,25.39
2017-08-15T12:59:16.653Z,25.41
2017-08-15T13:01:49.370Z,25.42
2017-08-15T13:04:23.162Z,25.49
2017-08-15T13:06:56.317Z,25.54
2017-08-15T13:09:29.863Z,25.58
2017-08-15T13:12:02.971Z,25.55
2017-08-15T13:14:36.587Z,25.64
2017-08-15T13:17:09.783Z,25.69
2017-08-15T13:19:43.389Z,25.70
2017-08-15T13:22:16.921Z,25.70
2017-08-15T13:24:49.856Z,25.75
2017-08-15T13:27:23.221Z,25.75
2017-08-15T13:29:57.375Z,25.72
2017-08-15T13:32:31.315Z,25.79
2017-08-15T13:35:04.102Z,25.80
2017-08-15T13:37:37.892Z,25.82
2017-08-15T13:40:10.975Z,25.85
2017-08-15T13:42:45.040Z,25.86
2017-08-15T13:45:17.806Z,25.95
2017-08-15T13:47:50.935Z,25.97
2017-08-15T13:50:25.022Z,25.96
2017-08-15T13:53:01.741Z,26.01
2017-08-15T13:55:35.638Z,26.05
2017-08-15T13:58:08.462Z,26.06
2017-08-15T14:00:41.754Z,26.12
2017-08-15T14:03:16.179Z,26.13
2017-08-15T14:05:50.530Z,26.10
2017-08-15T14:08:23.811Z,26.13
2017-08-15T14:10:57.963Z,26.14
2017-08-15T14:13:30.497Z,26.07
2017-08-15T14:16:04.011Z,26.03
2017-08-15T14:18:37.116Z,25.99
2017-08-15T14:21:10.521Z,25.95
2017-08-15T14:23:43.905Z,25.96
2017-08-15T14:26:18.243Z,25.97
2017-08-15T14:28:51.529Z,25.93
2017-08-15T14:31:25.000Z,25.93
2017-08-15T14:34:02.220Z,25.94
2017-08-15T14:36:35.554Z,25.96
2017-08-15T14:39:08.864Z,25.91
2017-08-15T14:41:43.111Z,25.82
2017-08-15T14:44:16.572Z,25.83
2017-08-15T14:46:49.944Z,25.81
2017-08-15T14:49:23.308Z,25.83
2017-08-15T14:51:56.750Z,25.82
2017-08-15T14:54:31.108Z,25.83
2017-08-15T14:57:04.551Z,25.82
2017-08-15T14:59:44.132Z,25.76
2017-08-15T15:02:18.513Z,25.74
2017-08-15T15:04:54.949Z,25.70
2017-08-15T15:07:29.911Z,25.65
2017-08-15T15:10:02.959Z,25.60
2017-08-15T15:12:36.395Z,25.56
2017-08-15T15:15:09.523Z,25.52
2017-08-15T15:17:43.046Z,25.48
2017-08-15T15:20:16.387Z,25.43
2017-08-15T15:22:56.743Z,25.40
2017-08-15T15:25:29.967Z,25.36
2017-08-15T15:28:03.374Z,25.31
2017-08-15T15:30:36.733Z,25.29
2017-08-15T15:33:09.895Z,25.27
2017-08-15T15:35:43.534Z,25.24
2017-08-15T15:38:16.781Z,25.23
2017-08-15T15:40:50.096Z,25.21
2017-08-15T15:43:23.526Z,25.19
2017-08-15T15:45:57.472Z,25.19
2017-08-15T15:48:30.258Z,25.18
2017-08-15T15:51:03.599Z,25.16
2017-08-15T15:53:37.929Z,25.14
2017-08-15T15:56:10.847Z,25.14
2017-08-15T15:58:44.739Z,25.12
2017-08-15T16:01:19.073Z,25.13
2017-08-15T16:03:54.835Z,25.10
2017-08-15T16:06:28.533Z,25.10
2017-08-15T16:09:05.085Z,25.09
2017-08-15T16:11:50.844Z,25.09
2017-08-15T16:14:32.971Z,25.09
2017-08-15T16:17:17.724Z,25.09
2017-08-15T16:19:57.674Z,25.08
2017-08-15T16:22:41.858Z,25.10
2017-08-15T16:25:25.550Z,25.15
2017-08-15T16:28:07.280Z,25.16
2017-08-15T16:30:44.947Z,25.16
2017-08-15T16:36:14.678Z,25.16
2017-08-15T16:39:03.343Z,25.18
2017-08-15T16:41:45.376Z,25.17
2017-08-15T16:44:28.577Z,25.15
2017-08-15T16:47:05.329Z,25.13
2017-08-15T16:49:52.658Z,25.11
2017-08-15T16:52:42.357Z,25.09
2017-08-15T16:55:27.268Z,25.08
2017-08-15T16:58:16.470Z,25.03
2017-08-15T17:00:59.155Z,24.99
2017-08-15T17:03:37.722Z,24.93
2017-08-15T17:06:19.322Z,24.87
2017-08-15T17:08:56.973Z,24.82
2017-08-15T17:11:43.179Z,24.77
2017-08-15T17:14:23.949Z,24.70
2017-08-15T17:17:05.362Z,24.64
2017-08-15T17:19:40.496Z,24.60
2017-08-15T17:22:22.570Z,24.54
2017-08-15T17:25:01.978Z,24.49
2017-08-15T17:27:44.362Z,24.43
2017-08-15T17:30:20.407Z,24.37
2017-08-15T17:33:03.054Z,24.31
2017-08-15T17:35:41.983Z,24.25
2017-08-15T17:38:32.203Z,24.19
2017-08-15T17:41:09.652Z,24.11
2017-08-15T17:43:55.914Z,24.05
2017-08-15T17:46:31.592Z,24.01
2017-08-15T17:49:13.902Z,23.94
2017-08-15T17:51:59.034Z,23.86
2017-08-15T17:54:39.078Z,23.80
2017-08-15T17:57:23.636Z,23.74
2017-08-15T18:00:05.180Z,23.68
2017-08-15T18:02:49.813Z,23.61
2017-08-15T18:05:29.803Z,23.55
2017-08-15T18:08:15.950Z,23.50
2017-08-15T18:10:57.063Z,23.45
2017-08-15T18:16:32.915Z,23.37
2017-08-15T18:19:10.991Z,23.32
2017-08-15T18:21:57.539Z,23.28
2017-08-15T18:24:47.110Z,23.22
2017-08-15T18:27:24.698Z,23.19
2017-08-15T18:29:58.129Z,23.15
2017-08-15T18:32:42.115Z,23.11
2017-08-15T18:35:22.861Z,23.04
2017-08-15T18:38:10.520Z,22.97
2017-08-15T18:46:20.328Z,22.65
2017-08-15T18:51:55.292Z,22.45
2017-08-15T18:57:23.459Z,22.26
2017-08-15T18:59:59.959Z,22.20
2017-08-15T19:02:37.112Z,22.15
2017-08-15T19:05:20.195Z,22.08
2017-08-15T19:08:01.219Z,22.02
2017-08-15T19:10:39.031Z,21.97
2017-08-15T19:13:16.230Z,21.91
2017-08-15T19:15:53.639Z,21.84
2017-08-15T19:18:34.759Z,21.80
2017-08-15T19:21:19.500Z,21.73
2017-08-15T19:23:58.108Z,21.68
2017-08-15T19:26:40.754Z,21.65
2017-08-15T19:29:22.763Z,21.59
2017-08-15T19:32:00.251Z,21.53
2017-08-15T19:34:40.874Z,21.48
2017-08-15T19:37:25.924Z,21.43
2017-08-15T19:40:14.842Z,21.39
2017-08-15T19:43:01.660Z,21.31
2017-08-15T19:45:34.385Z,21.26
2017-08-15T19:48:09.049Z,21.22
2017-08-15T19:50:48.803Z,21.16
2017-08-15T19:53:21.527Z,21.08
2017-08-15T19:55:54.733Z,21.05
2017-08-15T19:58:33.381Z,21.01
2017-08-15T20:01:19.487Z,20.96
2017-08-15T20:04:08.264Z,20.92
2017-08-15T20:06:55.481Z,20.88
2017-08-15T20:09:39.691Z,20.83
2017-08-15T20:12:20.219Z,20.80
2017-08-15T20:14:59.503Z,20.78
2017-08-15T20:17:32.915Z,20.74
2017-08-15T20:20:16.131Z,20.71
2017-08-15T20:22:50.035Z,20.69
2017-08-15T20:28:14.306Z,20.63
2017-08-15T20:30:49.384Z,20.60
2017-08-15T20:33:35.542Z,20.57
2017-08-15T20:36:12.352Z,20.53
2017-08-15T20:38:47.248Z,20.50
2017-08-15T20:41:22.511Z,20.48
2017-08-15T20:43:59.521Z,20.47
2017-08-15T20:46:35.225Z,20.43
2017-08-15T20:49:10.502Z,20.42
2017-08-15T20:51:45.956Z,20.40
2017-08-15T20:54:19.967Z,20.38
2017-08-15T20:56:54.979Z,20.36
2017-08-15T20:59:29.351Z,20.34
2017-08-15T21:02:04.153Z,20.34
2017-08-15T21:04:39.063Z,20.28
2017-08-15T21:10:21.321Z,20.26
2017-08-15T21:13:14.814Z,20.24
2017-08-15T21:16:03.593Z,20.21
2017-08-15T21:18:38.272Z,20.20
2017-08-15T21:21:12.436Z,20.18
2017-08-15T21:23:46.885Z,20.15
2017-08-15T21:26:21.779Z,20.13
2017-08-15T21:28:58.140Z,20.11
2017-08-15T21:31:34.575Z,20.10
2017-08-15T21:34:08.243Z,20.09
2017-08-15T21:36:43.253Z,20.07
2017-08-15T21:39:22.720Z,20.05
2017-08-15T21:41:59.680Z,20.02
2017-08-15T21:44:34.422Z,19.99
2017-08-15T21:47:08.997Z,19.95
2017-08-15T21:49:45.879Z,19.92
2017-08-15T21:52:18.989Z,19.87
2017-08-15T21:54:52.560Z,19.85
2017-08-15T21:57:30.607Z,19.81
2017-08-15T22:00:04.663Z,19.77
2017-08-15T22:02:40.332Z,19.74
2017-08-15T22:05:15.337Z,19.71
2017-08-15T22:07:50.201Z,19.69
2017-08-15T22:10:23.657Z,19.65
2017-08-15T22:13:05.498Z,19.64
2017-08-15T22:15:43.784Z,19.62
2017-08-15T22:18:20.406Z,19.60
2017-08-15T22:20:54.654Z,19.56
2017-08-15T22:23:28.592Z,19.54
2017-08-15T22:26:01.427Z,19.52
2017-08-15T22:28:34.801Z,19.50
2017-08-15T22:31:16.072Z,19.48
2017-08-15T22:33:49.540Z,19.46
2017-08-15T22:36:23.465Z,19.43
2017-08-15T22:38:57.881Z,19.41
2017-08-15T22:41:31.932Z,19.39
2017-08-15T22:44:07.326Z,19.36
2017-08-15T22:46:42.648Z,19.32
2017-08-15T22:49:18.125Z,19.30
2017-08-15T22:51:53.076Z,19.26
2017-08-15T22:54:28.824Z,19.25
2017-08-15T22:57:02.974Z,19.23
2017-08-15T22:59:38.515Z,19.20
2017-08-15T23:02:12.423Z,19.18
2017-08-15T23:04:47.117Z,19.16
2017-08-15T23:07:26.478Z,19.14
2017-08-15T23:10:01.291Z,19.11
2017-08-15T23:12:36.498Z,19.08
2017-08-15T23:15:13.463Z,19.06
2017-08-15T23:17:47.614Z,19.04
2017-08-15T23:20:22.495Z,19.00
2017-08-15T23:23:00.514Z,18.98
2017-08-15T23:25:38.628Z,18.95
2017-08-15T23:28:15.228Z,18.93
2017-08-15T23:30:50.423Z,18.91
2017-08-15T23:33:23.992Z,18.88
2017-08-15T23:35:57.680Z,18.85
2017-08-15T23:38:32.104Z,18.84
2017-08-15T23:41:05.311Z,18.83
2017-08-15T23:43:38.723Z,18.81
2017-08-15T23:46:12.052Z,18.79
2017-08-15T23:48:45.442Z,18.77
2017-08-15T23:51:18.872Z,18.74
2017-08-15T23:53:52.115Z,18.72
2017-08-15T23:56:25.468Z,18.72
2017-08-15T23:58:59.032Z,18.72
